createdAt,value
2023-02-24T00:02:04.147Z,9.50
2023-02-24T00:04:34.091Z,10.10
2023-02-24T00:07:02.891Z,10.60
2023-02-24T00:09:33.229Z,9.40
2023-02-24T00:12:04.840Z,9.70
2023-02-24T00:14:37.900Z,10.10
2023-02-24T00:17:08.336Z,9.30
2023-02-24T00:19:36.688Z,9.80
2023-02-24T00:22:08.319Z,10.00
2023-02-24T00:24:37.921Z,10.30
2023-02-24T00:27:12.723Z,9.90
2023-02-24T00:29:45.118Z,9.80
2023-02-24T00:32:14.846Z,9.90
2023-02-24T00:34:44.656Z,10.20
2023-02-24T00:37:15.457Z,9.50
2023-02-24T00:39:45.700Z,9.90
2023-02-24T00:42:15.451Z,10.30
2023-02-24T00:44:45.176Z,10.00
2023-02-24T00:47:13.711Z,10.50
2023-02-24T00:49:43.451Z,9.90
2023-02-24T00:52:13.945Z,10.10
2023-02-24T00:54:43.469Z,10.70
2023-02-24T00:57:11.717Z,10.10
2023-02-24T00:59:42.448Z,10.40
2023-02-24T01:02:11.454Z,9.60
2023-02-24T01:04:39.978Z,9.80
2023-02-24T01:07:10.977Z,10.30
2023-02-24T01:09:40.439Z,10.80
2023-02-24T01:12:29.351Z,9.60
2023-02-24T01:14:57.614Z,10.10
2023-02-24T01:17:28.645Z,10.20
2023-02-24T01:20:00.897Z,10.20
2023-02-24T01:22:29.337Z,9.90
2023-02-24T01:24:57.562Z,10.10
2023-02-24T01:27:25.636Z,10.40
2023-02-24T01:29:55.490Z,10.00
2023-02-24T01:32:25.659Z,9.90
2023-02-24T01:34:54.161Z,10.60
2023-02-24T01:37:22.376Z,10.20
2023-02-24T01:39:50.687Z,10.70
2023-02-24T01:42:20.559Z,10.90
2023-02-24T01:44:48.930Z,10.60
2023-02-24T01:47:18.273Z,10.80
2023-02-24T01:49:51.949Z,10.90
2023-02-24T01:52:20.995Z,10.80
2023-02-24T01:54:56.357Z,10.60
2023-02-24T01:59:55.477Z,10.10
2023-02-24T02:02:23.759Z,11.30
2023-02-24T02:04:59.992Z,11.30
2023-02-24T02:07:31.614Z,11.00
2023-02-24T02:10:06.472Z,11.10
2023-02-24T02:12:44.113Z,10.00
2023-02-24T02:15:13.685Z,10.40
2023-02-24T02:18:07.502Z,11.00
2023-02-24T02:21:18.843Z,10.60
2023-02-24T02:23:49.999Z,9.90
2023-02-24T02:27:03.537Z,11.10
2023-02-24T02:29:49.286Z,11.40
2023-02-24T02:32:24.509Z,11.40
2023-02-24T02:34:59.262Z,10.20
2023-02-24T02:37:33.045Z,10.90
2023-02-24T02:40:24.621Z,11.10
2023-02-24T02:43:33.009Z,11.80
2023-02-24T02:46:03.831Z,11.10
2023-02-24T02:48:49.242Z,10.40
2023-02-24T02:51:24.793Z,11.30
2023-02-24T02:54:46.107Z,11.00
2023-02-24T02:57:29.037Z,11.30
2023-02-24T03:00:13.998Z,11.50
2023-02-24T03:02:44.503Z,11.00
2023-02-24T03:05:17.469Z,12.10
2023-02-24T03:08:59.576Z,12.60
2023-02-24T03:11:28.236Z,10.90
2023-02-24T03:13:56.649Z,11.40
2023-02-24T03:16:26.670Z,11.80
2023-02-24T03:18:59.396Z,11.70
2023-02-24T03:21:39.864Z,11.60
2023-02-24T03:24:08.049Z,10.60
2023-02-24T03:27:23.076Z,11.50
2023-02-24T03:29:54.145Z,11.50
2023-02-24T03:32:33.764Z,12.50
2023-02-24T03:35:17.057Z,12.10
2023-02-24T03:37:47.227Z,11.10
2023-02-24T03:40:18.344Z,12.10
2023-02-24T03:42:48.986Z,13.00
2023-02-24T03:45:17.864Z,12.40
2023-02-24T03:47:46.846Z,11.50
2023-02-24T03:50:17.781Z,10.80
2023-02-24T03:53:10.136Z,11.70
2023-02-24T03:56:00.591Z,12.30
2023-02-24T03:58:47.201Z,11.90
2023-02-24T04:01:42.222Z,11.00
2023-02-24T04:04:16.977Z,10.20
2023-02-24T04:06:56.361Z,11.90
2023-02-24T04:09:33.215Z,11.10
2023-02-24T04:12:33.033Z,11.30
2023-02-24T04:15:21.253Z,11.30
2023-02-24T04:17:54.789Z,10.70
2023-02-24T04:20:27.960Z,12.20
2023-02-24T04:23:01.809Z,10.70
2023-02-24T04:25:31.067Z,10.70
2023-02-24T04:27:59.755Z,10.30
2023-02-24T04:30:33.528Z,9.90
2023-02-24T04:33:02.303Z,11.20
2023-02-24T04:35:33.096Z,11.30
2023-02-24T04:38:02.833Z,10.70
2023-02-24T04:40:32.736Z,10.50
2023-02-24T04:43:01.148Z,10.00
2023-02-24T04:45:32.815Z,10.10
2023-02-24T04:48:02.086Z,10.40
2023-02-24T04:50:35.469Z,10.40
2023-02-24T04:53:09.465Z,10.40
2023-02-24T04:55:42.597Z,10.10
2023-02-24T04:58:19.331Z,10.40
2023-02-24T05:00:52.822Z,10.00
2023-02-24T05:03:30.055Z,10.10
2023-02-24T05:06:00.226Z,9.90
2023-02-24T05:08:30.657Z,9.50
2023-02-24T05:11:00.936Z,10.30
2023-02-24T05:13:32.117Z,9.70
2023-02-24T05:16:06.367Z,10.50
2023-02-24T05:18:37.024Z,9.80
2023-02-24T05:21:31.385Z,9.60
2023-02-24T05:23:59.700Z,10.00
2023-02-24T05:26:44.495Z,10.90
2023-02-24T05:29:15.008Z,10.10
2023-02-24T05:31:44.133Z,10.60
2023-02-24T05:34:17.053Z,10.80
2023-02-24T05:36:46.633Z,10.30
2023-02-24T05:39:19.265Z,11.20
2023-02-24T05:41:48.683Z,11.20
2023-02-24T05:44:22.862Z,11.70
2023-02-24T05:46:56.782Z,10.30
2023-02-24T05:49:28.605Z,10.60
2023-02-24T05:51:58.060Z,10.70
2023-02-24T05:54:31.253Z,10.80
2023-02-24T05:57:00.694Z,11.00
2023-02-24T05:59:35.204Z,10.00
2023-02-24T06:02:09.498Z,9.90
2023-02-24T06:04:50.805Z,10.30
2023-02-24T06:07:22.934Z,11.70
2023-02-24T06:09:58.601Z,10.60
2023-02-24T06:12:39.965Z,10.70
2023-02-24T06:15:10.843Z,10.10
2023-02-24T06:17:39.551Z,9.80
2023-02-24T06:20:15.684Z,9.90
2023-02-24T06:22:45.103Z,10.50
2023-02-24T06:25:18.628Z,9.90
2023-02-24T06:27:54.206Z,10.80
2023-02-24T06:30:23.498Z,10.50
2023-02-24T06:32:51.980Z,10.00
2023-02-24T06:35:20.473Z,10.00
2023-02-24T06:37:50.954Z,11.50
2023-02-24T06:40:20.059Z,10.80
2023-02-24T06:42:49.750Z,10.20
2023-02-24T06:45:18.983Z,9.90
2023-02-24T06:47:49.995Z,10.40
2023-02-24T06:50:20.242Z,10.90
2023-02-24T06:52:49.296Z,11.10
2023-02-24T06:55:26.969Z,10.70
2023-02-24T06:58:04.151Z,11.30
2023-02-24T07:00:39.850Z,10.60
2023-02-24T07:03:15.924Z,10.60
2023-02-24T07:05:50.262Z,11.30
2023-02-24T07:08:23.114Z,10.70
2023-02-24T07:10:56.078Z,10.90
2023-02-24T07:13:26.220Z,10.40
2023-02-24T07:16:06.984Z,10.30
2023-02-24T07:18:37.416Z,10.50
2023-02-24T07:21:06.273Z,10.40
2023-02-24T07:23:35.101Z,9.90
2023-02-24T07:26:10.201Z,10.80
2023-02-24T07:28:42.590Z,9.90
2023-02-24T07:31:17.195Z,10.50
2023-02-24T07:33:46.671Z,10.80
2023-02-24T07:36:18.343Z,10.60
2023-02-24T07:38:46.610Z,10.50
2023-02-24T07:41:19.992Z,12.10
2023-02-24T07:43:50.806Z,11.10
2023-02-24T07:46:29.401Z,10.60
2023-02-24T07:48:59.854Z,10.10
2023-02-24T07:51:29.462Z,10.80
2023-02-24T07:54:03.261Z,12.50
2023-02-24T07:56:46.051Z,11.10
2023-02-24T07:59:19.393Z,10.70
2023-02-24T08:01:50.273Z,11.00
2023-02-24T08:04:19.642Z,10.70
2023-02-24T08:06:50.342Z,10.90
2023-02-24T08:09:20.787Z,10.70
2023-02-24T08:11:55.337Z,10.80
2023-02-24T08:14:32.735Z,10.50
2023-02-24T08:19:33.391Z,10.80
2023-02-24T08:22:19.953Z,10.90
2023-02-24T08:24:54.468Z,11.20
2023-02-24T08:27:25.879Z,11.70
2023-02-24T08:30:01.701Z,9.80
2023-02-24T08:32:37.072Z,11.20
2023-02-24T08:35:14.972Z,10.40
2023-02-24T08:37:48.363Z,11.10
2023-02-24T08:40:32.188Z,10.70
2023-02-24T08:43:32.989Z,11.40
2023-02-24T08:46:26.702Z,9.30
2023-02-24T08:49:01.126Z,10.00
2023-02-24T08:51:43.741Z,10.90
2023-02-24T08:54:17.182Z,10.30
2023-02-24T08:56:56.170Z,11.50
2023-02-24T08:59:38.347Z,10.60
2023-02-24T09:02:18.758Z,9.90
2023-02-24T09:04:48.794Z,10.30
2023-02-24T09:07:35.369Z,10.10
2023-02-24T09:10:11.636Z,9.90
2023-02-24T09:12:41.483Z,9.60
2023-02-24T09:15:10.804Z,10.70
2023-02-24T09:17:45.419Z,11.20
2023-02-24T09:20:42.745Z,10.70
2023-02-24T09:23:20.332Z,10.10
2023-02-24T09:25:54.292Z,9.60
2023-02-24T09:28:26.748Z,10.40
2023-02-24T09:30:59.385Z,11.20
2023-02-24T09:33:41.380Z,9.80
2023-02-24T09:36:36.838Z,11.00
2023-02-24T09:39:05.010Z,11.80
2023-02-24T09:42:18.889Z,10.70
2023-02-24T09:44:56.210Z,11.10
2023-02-24T09:47:56.293Z,11.10
2023-02-24T09:51:01.653Z,15.00
2023-02-24T09:53:29.618Z,13.10
2023-02-24T09:56:06.195Z,10.10
2023-02-24T09:58:49.562Z,10.50
2023-02-24T10:01:31.089Z,12.20
2023-02-24T10:04:14.973Z,10.40
2023-02-24T10:06:58.779Z,9.70
2023-02-24T10:09:34.477Z,11.00
2023-02-24T10:12:24.167Z,10.40
2023-02-24T10:15:17.125Z,10.00
2023-02-24T10:17:55.536Z,9.60
2023-02-24T10:20:39.864Z,9.40
2023-02-24T10:23:29.923Z,9.10
2023-02-24T10:26:33.401Z,9.30
2023-02-24T10:29:22.799Z,8.90
2023-02-24T10:31:57.972Z,9.70
2023-02-24T10:34:31.939Z,10.00
2023-02-24T10:37:19.342Z,13.40
2023-02-24T10:40:00.005Z,10.70
2023-02-24T10:42:32.335Z,8.80
2023-02-24T10:45:17.317Z,9.30
2023-02-24T10:47:57.472Z,9.90
2023-02-24T10:50:33.859Z,10.10
2023-02-24T10:53:26.788Z,9.70
2023-02-24T10:56:18.864Z,10.00
2023-02-24T10:58:53.011Z,9.90
2023-02-24T11:01:40.891Z,10.60
2023-02-24T11:04:33.274Z,10.60
2023-02-24T11:07:24.567Z,10.30
2023-02-24T11:10:13.880Z,11.20
2023-02-24T11:13:09.922Z,9.90
2023-02-24T11:16:05.275Z,10.20
2023-02-24T11:18:35.088Z,9.10
2023-02-24T11:21:09.539Z,10.50
2023-02-24T11:23:42.668Z,10.30
2023-02-24T11:26:23.705Z,10.80
2023-02-24T11:29:19.964Z,10.50
2023-02-24T11:32:11.609Z,12.10
2023-02-24T11:34:49.736Z,12.70
2023-02-24T11:37:24.401Z,12.30
2023-02-24T11:40:00.203Z,10.60
2023-02-24T11:42:46.238Z,10.60
2023-02-24T11:45:37.924Z,9.70
2023-02-24T11:48:10.431Z,10.50
2023-02-24T11:50:45.075Z,10.60
2023-02-24T11:53:30.248Z,10.50
2023-02-24T11:56:36.940Z,11.00
2023-02-24T11:59:21.303Z,11.30
2023-02-24T12:02:16.624Z,10.50
2023-02-24T12:05:00.689Z,10.60
2023-02-24T12:07:32.982Z,10.50
2023-02-24T12:10:17.121Z,10.80
2023-02-24T12:13:11.558Z,9.90
2023-02-24T12:15:44.162Z,9.90
2023-02-24T12:18:21.019Z,10.40
2023-02-24T12:20:52.975Z,10.50
2023-02-24T12:23:33.165Z,10.90
2023-02-24T12:26:26.193Z,10.40
2023-02-24T12:29:32.800Z,10.50
2023-02-24T12:32:21.092Z,10.90
2023-02-24T12:35:07.057Z,10.70
2023-02-24T12:37:51.126Z,10.20
2023-02-24T12:40:29.813Z,9.10
2023-02-24T12:42:57.857Z,9.60
2023-02-24T12:45:38.757Z,9.90
2023-02-24T12:48:44.642Z,10.10
2023-02-24T12:51:16.396Z,10.10
2023-02-24T12:53:49.430Z,10.00
2023-02-24T12:56:25.821Z,9.70
2023-02-24T12:59:00.511Z,9.70
2023-02-24T13:01:36.307Z,10.00
2023-02-24T13:04:29.103Z,9.60
2023-02-24T13:07:06.739Z,10.40
2023-02-24T13:09:41.926Z,9.50
2023-02-24T13:12:35.006Z,11.80
2023-02-24T13:15:19.578Z,10.80
2023-02-24T13:17:56.398Z,10.20
2023-02-24T13:20:32.165Z,11.00
2023-02-24T13:23:04.970Z,8.90
2023-02-24T13:25:39.472Z,10.70
2023-02-24T13:28:28.085Z,10.70
2023-02-24T13:30:58.550Z,9.60
2023-02-24T13:33:35.214Z,9.90
2023-02-24T13:36:14.208Z,9.60
2023-02-24T13:38:47.461Z,9.90
2023-02-24T13:41:37.472Z,11.50
2023-02-24T13:44:28.132Z,16.40
2023-02-24T13:47:14.579Z,10.30
2023-02-24T13:50:18.906Z,12.20
2023-02-24T13:53:31.415Z,9.10
2023-02-24T13:56:30.045Z,9.80
2023-02-24T13:59:24.072Z,11.80
2023-02-24T14:01:58.943Z,11.10
2023-02-24T14:04:35.382Z,12.50
2023-02-24T14:07:05.415Z,13.00
2023-02-24T14:09:45.332Z,12.30
2023-02-24T14:12:21.901Z,13.40
2023-02-24T14:14:50.185Z,11.80
2023-02-24T14:17:36.249Z,11.60
2023-02-24T14:20:06.802Z,10.30
2023-02-24T14:22:43.601Z,11.80
2023-02-24T14:25:12.172Z,10.50
2023-02-24T14:27:43.362Z,11.20
2023-02-24T14:30:33.526Z,11.20
2023-02-24T14:33:03.585Z,11.00
2023-02-24T14:35:39.078Z,15.10
2023-02-24T14:38:45.746Z,17.70
2023-02-24T14:41:19.699Z,11.10
2023-02-24T14:43:49.297Z,14.90
2023-02-24T14:46:17.460Z,13.40
2023-02-24T14:48:45.843Z,14.30
2023-02-24T14:51:24.993Z,13.40
2023-02-24T14:53:56.784Z,13.80
2023-02-24T14:56:28.870Z,11.80
2023-02-24T14:59:03.629Z,11.90
2023-02-24T15:01:36.685Z,12.10
2023-02-24T15:04:30.356Z,13.80
2023-02-24T15:06:59.162Z,14.30
2023-02-24T15:09:37.660Z,12.20
2023-02-24T15:12:13.540Z,16.40
2023-02-24T15:14:52.650Z,18.90
2023-02-24T15:17:21.736Z,11.00
2023-02-24T15:19:54.667Z,10.50
2023-02-24T15:25:37.190Z,12.90
2023-02-24T15:28:26.818Z,11.00
2023-02-24T15:31:11.472Z,10.60
2023-02-24T15:33:41.731Z,12.30
2023-02-24T15:36:21.914Z,12.20
2023-02-24T15:38:58.599Z,12.10
2023-02-24T15:41:27.010Z,15.00
2023-02-24T15:43:56.292Z,14.10
2023-02-24T15:46:32.432Z,14.20
2023-02-24T15:49:04.525Z,12.40
2023-02-24T15:51:47.384Z,11.70
2023-02-24T15:54:18.844Z,13.50
2023-02-24T15:56:47.692Z,13.60
2023-02-24T15:59:21.205Z,26.20
2023-02-24T16:01:49.508Z,13.60
2023-02-24T16:04:17.799Z,12.60
2023-02-24T16:06:54.810Z,26.40
2023-02-24T16:09:36.335Z,17.60
2023-02-24T16:12:06.807Z,11.50
2023-02-24T16:14:37.813Z,13.20
2023-02-24T16:17:09.151Z,14.20
2023-02-24T16:19:38.954Z,11.80
2023-02-24T16:22:08.928Z,10.90
2023-02-24T16:24:38.348Z,15.40
2023-02-24T16:27:06.857Z,12.60
2023-02-24T16:29:34.933Z,11.30
2023-02-24T16:32:04.421Z,11.90
2023-02-24T16:34:32.738Z,12.50
2023-02-24T16:37:01.502Z,13.60
2023-02-24T16:39:30.179Z,12.60
2023-02-24T16:41:59.432Z,22.90
2023-02-24T16:44:27.535Z,20.10
2023-02-24T16:46:56.537Z,22.90
2023-02-24T16:49:25.537Z,17.50
2023-02-24T16:51:54.001Z,16.20
2023-02-24T16:54:22.600Z,14.30
2023-02-24T16:56:52.134Z,12.80
2023-02-24T16:59:21.711Z,15.90
2023-02-24T17:01:50.445Z,19.10
2023-02-24T17:04:19.114Z,12.50
2023-02-24T17:06:47.652Z,13.90
2023-02-24T17:09:16.063Z,19.20
2023-02-24T17:11:44.688Z,19.10
2023-02-24T17:14:17.178Z,14.30
2023-02-24T17:16:46.208Z,16.30
2023-02-24T17:19:14.774Z,17.50
2023-02-24T17:21:43.889Z,12.90
2023-02-24T17:24:18.964Z,12.90
2023-02-24T17:26:47.473Z,13.60
2023-02-24T17:29:15.888Z,13.30
2023-02-24T17:31:44.555Z,14.30
2023-02-24T17:34:16.690Z,16.40
2023-02-24T17:36:45.934Z,12.90
2023-02-24T17:39:14.232Z,12.00
2023-02-24T17:41:42.501Z,14.10
2023-02-24T17:44:10.793Z,13.90
2023-02-24T17:46:40.472Z,14.60
2023-02-24T17:49:08.912Z,15.70
2023-02-24T17:51:37.442Z,17.10
2023-02-24T17:54:05.899Z,19.50
2023-02-24T17:56:34.379Z,20.00
2023-02-24T17:59:03.271Z,19.20
2023-02-24T18:01:31.548Z,22.30
2023-02-24T18:04:00.972Z,19.70
2023-02-24T18:06:29.323Z,17.60
2023-02-24T18:08:58.833Z,16.50
2023-02-24T18:11:27.200Z,15.40
2023-02-24T18:14:00.426Z,16.30
2023-02-24T18:16:30.685Z,18.60
2023-02-24T18:18:58.892Z,16.50
2023-02-24T18:21:26.993Z,19.10
2023-02-24T18:23:56.179Z,14.30
2023-02-24T18:26:26.291Z,18.90
2023-02-24T18:28:55.808Z,17.20
2023-02-24T18:31:26.970Z,18.20
2023-02-24T18:33:56.399Z,21.70
2023-02-24T18:36:24.852Z,23.80
2023-02-24T18:38:53.448Z,20.60
2023-02-24T18:41:23.451Z,16.40
2023-02-24T18:43:53.024Z,18.70
2023-02-24T18:46:22.269Z,17.10
2023-02-24T18:48:52.829Z,16.70
2023-02-24T18:51:22.375Z,14.70
2023-02-24T18:53:52.803Z,15.10
2023-02-24T18:56:23.625Z,16.00
2023-02-24T18:58:58.412Z,14.80
2023-02-24T19:01:27.800Z,14.30
2023-02-24T19:03:56.506Z,14.40
2023-02-24T19:06:27.012Z,15.20
2023-02-24T19:08:58.747Z,13.00
2023-02-24T19:11:29.056Z,14.00
2023-02-24T19:13:57.969Z,13.70
2023-02-24T19:16:26.444Z,12.90
2023-02-24T19:18:58.591Z,13.80
2023-02-24T19:21:28.107Z,13.50
2023-02-24T19:24:01.006Z,14.00
2023-02-24T19:26:30.194Z,16.60
2023-02-24T19:29:00.806Z,15.70
2023-02-24T19:31:31.147Z,14.90
2023-02-24T19:34:01.881Z,14.40
2023-02-24T19:36:32.021Z,13.90
2023-02-24T19:39:00.329Z,14.70
2023-02-24T19:41:28.508Z,14.20
2023-02-24T19:43:58.728Z,17.70
2023-02-24T19:46:28.764Z,15.10
2023-02-24T19:48:56.834Z,13.60
2023-02-24T19:51:25.538Z,13.20
2023-02-24T19:53:58.687Z,15.40
2023-02-24T19:56:34.093Z,15.20
2023-02-24T19:59:02.967Z,16.50
2023-02-24T20:01:31.501Z,14.20
2023-02-24T20:04:01.906Z,14.70
2023-02-24T20:06:32.264Z,13.40
2023-02-24T20:09:01.835Z,12.80
2023-02-24T20:11:31.030Z,13.20
2023-02-24T20:14:02.064Z,13.20
2023-02-24T20:16:34.919Z,11.90
2023-02-24T20:19:10.092Z,12.00
2023-02-24T20:21:38.985Z,11.90
2023-02-24T20:24:10.130Z,11.50
2023-02-24T20:26:43.315Z,14.40
2023-02-24T20:29:12.931Z,15.20
2023-02-24T20:31:41.419Z,17.00
2023-02-24T20:34:10.757Z,13.20
2023-02-24T20:36:40.984Z,12.60
2023-02-24T20:39:12.408Z,14.20
2023-02-24T20:41:40.805Z,14.60
2023-02-24T20:44:10.528Z,14.60
2023-02-24T20:46:38.904Z,15.20
2023-02-24T20:49:08.979Z,12.70
2023-02-24T20:51:38.055Z,14.80
2023-02-24T20:54:07.598Z,15.10
2023-02-24T20:56:38.043Z,16.30
2023-02-24T20:59:15.247Z,16.20
2023-02-24T21:01:47.069Z,13.90
2023-02-24T21:04:17.344Z,12.10
2023-02-24T21:06:47.815Z,11.20
2023-02-24T21:09:19.666Z,13.50
2023-02-24T21:11:48.302Z,11.20
2023-02-24T21:14:16.791Z,13.10
2023-02-24T21:16:46.176Z,12.40
2023-02-24T21:19:15.114Z,14.20
2023-02-24T21:21:43.491Z,12.80
2023-02-24T21:24:12.995Z,13.20
2023-02-24T21:26:42.494Z,13.00
2023-02-24T21:29:10.693Z,11.60
2023-02-24T21:31:38.885Z,11.80
2023-02-24T21:34:11.520Z,11.00
2023-02-24T21:36:41.514Z,11.40
2023-02-24T21:39:14.633Z,11.30
2023-02-24T21:41:43.039Z,11.70
2023-02-24T21:44:12.248Z,10.80
2023-02-24T21:46:45.762Z,10.90
2023-02-24T21:49:15.514Z,10.20
2023-02-24T21:51:48.938Z,11.20
2023-02-24T21:54:17.646Z,11.20
2023-02-24T21:56:45.700Z,12.10
2023-02-24T21:59:13.984Z,11.50
2023-02-24T22:01:43.032Z,9.90
2023-02-24T22:04:13.202Z,10.30
2023-02-24T22:06:41.740Z,10.50
2023-02-24T22:09:14.291Z,11.10
2023-02-24T22:11:42.643Z,12.60
2023-02-24T22:14:13.589Z,12.20
2023-02-24T22:16:41.928Z,11.30
2023-02-24T22:19:11.472Z,11.20
2023-02-24T22:21:42.445Z,12.60
2023-02-24T22:24:12.934Z,12.50
2023-02-24T22:26:41.221Z,13.10
2023-02-24T22:29:09.985Z,13.40
2023-02-24T22:31:39.147Z,12.80
2023-02-24T22:34:08.857Z,11.90
2023-02-24T22:36:37.447Z,13.10
2023-02-24T22:39:05.749Z,12.90
2023-02-24T22:41:34.448Z,12.60
2023-02-24T22:44:04.023Z,12.40
2023-02-24T22:46:35.736Z,11.80
2023-02-24T22:49:05.556Z,10.80
2023-02-24T22:51:33.974Z,11.20
2023-02-24T22:54:02.226Z,11.60
2023-02-24T22:56:31.182Z,11.30
2023-02-24T22:59:01.640Z,11.70
2023-02-24T23:01:35.080Z,11.30
2023-02-24T23:04:07.256Z,11.00
2023-02-24T23:06:36.517Z,11.70
2023-02-24T23:09:05.156Z,14.10
2023-02-24T23:11:37.524Z,13.40
2023-02-24T23:14:10.085Z,14.00
2023-02-24T23:16:39.027Z,12.80
2023-02-24T23:19:16.969Z,12.20
2023-02-24T23:21:48.220Z,14.10
2023-02-24T23:24:16.872Z,14.00
2023-02-24T23:26:46.643Z,18.40
2023-02-24T23:29:17.439Z,17.80
2023-02-24T23:31:47.681Z,17.80
2023-02-24T23:34:15.986Z,16.20
2023-02-24T23:36:45.921Z,13.60
2023-02-24T23:39:23.060Z,16.30
2023-02-24T23:41:56.862Z,15.10
2023-02-24T23:44:25.768Z,14.10
2023-02-24T23:46:54.136Z,13.80
2023-02-24T23:49:24.132Z,13.70
2023-02-24T23:51:53.078Z,14.60
2023-02-24T23:54:21.248Z,14.20
2023-02-24T23:56:50.624Z,16.20
2023-02-24T23:59:21.671Z,14.20
